createdAt,value
2023-03-27T00:00:13.225Z,2.20
2023-03-27T00:02:41.794Z,2.20
2023-03-27T00:05:11.265Z,2.40
2023-03-27T00:07:41.327Z,2.00
2023-03-27T00:10:10.333Z,2.00
2023-03-27T00:12:39.126Z,1.90
2023-03-27T00:15:09.780Z,2.00
2023-03-27T00:17:38.103Z,1.90
2023-03-27T00:20:07.049Z,2.10
2023-03-27T00:22:36.002Z,1.90
2023-03-27T00:25:04.278Z,1.80
2023-03-27T00:27:33.175Z,1.80
2023-03-27T00:30:01.198Z,1.60
2023-03-27T00:32:30.733Z,2.00
2023-03-27T00:35:00.199Z,1.70
2023-03-27T00:37:28.217Z,1.70
2023-03-27T00:39:56.623Z,1.60
2023-03-27T00:42:27.172Z,1.60
2023-03-27T00:44:55.471Z,1.90
2023-03-27T00:47:33.008Z,1.50
2023-03-27T00:50:06.886Z,1.50
2023-03-27T00:52:37.111Z,1.40
2023-03-27T00:55:09.774Z,1.40
2023-03-27T00:57:38.229Z,1.30
2023-03-27T01:00:13.361Z,1.20
2023-03-27T01:02:42.779Z,1.10
2023-03-27T01:05:13.736Z,1.10
2023-03-27T01:07:42.118Z,1.10
2023-03-27T01:10:40.446Z,1.10
2023-03-27T01:13:22.724Z,1.10
2023-03-27T01:15:55.549Z,1.00
2023-03-27T01:18:36.103Z,1.00
2023-03-27T01:21:38.041Z,1.00
2023-03-27T01:24:32.750Z,1.00
2023-03-27T01:27:08.006Z,1.00
2023-03-27T01:29:46.878Z,1.00
2023-03-27T01:32:40.162Z,1.00
2023-03-27T01:35:29.580Z,0.90
2023-03-27T01:38:36.618Z,0.90
2023-03-27T01:41:10.975Z,0.80
2023-03-27T01:43:44.357Z,0.80
2023-03-27T01:46:19.443Z,0.90
2023-03-27T01:48:52.977Z,0.70
2023-03-27T01:51:24.471Z,0.70
2023-03-27T01:53:56.209Z,0.70
2023-03-27T01:56:32.754Z,0.70
2023-03-27T01:59:05.626Z,0.70
2023-03-27T02:01:38.520Z,0.70
2023-03-27T02:04:12.330Z,0.70
2023-03-27T02:06:43.986Z,0.60
2023-03-27T02:09:17.449Z,0.60
2023-03-27T02:11:53.988Z,0.70
2023-03-27T02:14:24.834Z,0.90
2023-03-27T02:16:56.609Z,0.60
2023-03-27T02:19:33.520Z,0.70
2023-03-27T02:22:01.686Z,0.60
2023-03-27T02:24:29.665Z,0.60
2023-03-27T02:27:06.072Z,0.60
2023-03-27T02:29:46.489Z,0.90
2023-03-27T02:32:26.754Z,0.60
2023-03-27T02:35:12.951Z,0.60
2023-03-27T02:37:50.902Z,0.60
2023-03-27T02:40:29.136Z,0.50
2023-03-27T02:43:06.616Z,0.50
2023-03-27T02:45:43.987Z,0.40
2023-03-27T02:48:18.507Z,0.50
2023-03-27T02:50:51.712Z,0.30
2023-03-27T02:53:23.758Z,0.20
2023-03-27T02:55:55.801Z,0.20
2023-03-27T02:58:32.251Z,0.20
2023-03-27T03:01:02.213Z,0.20
2023-03-27T03:03:36.049Z,0.40
2023-03-27T03:06:07.146Z,0.40
2023-03-27T03:08:38.246Z,0.50
2023-03-27T03:11:08.915Z,0.60
2023-03-27T03:13:38.865Z,0.60
2023-03-27T03:16:08.781Z,0.60
2023-03-27T03:18:37.062Z,0.60
2023-03-27T03:21:05.750Z,0.60
2023-03-27T03:23:34.048Z,0.60
2023-03-27T03:26:03.116Z,0.50
2023-03-27T03:28:31.207Z,0.50
2023-03-27T03:31:02.781Z,0.50
2023-03-27T03:33:31.114Z,0.50
2023-03-27T03:36:00.825Z,0.60
2023-03-27T03:38:37.815Z,0.40
2023-03-27T03:41:07.056Z,0.70
2023-03-27T03:43:35.220Z,0.40
2023-03-27T03:46:05.053Z,0.30
2023-03-27T03:48:33.041Z,0.30
2023-03-27T03:51:01.139Z,0.30
2023-03-27T03:53:29.242Z,0.30
2023-03-27T03:55:57.575Z,0.30
2023-03-27T03:58:34.555Z,0.30
2023-03-27T04:01:04.810Z,0.30
2023-03-27T04:03:34.057Z,0.30
2023-03-27T04:06:05.323Z,0.30
2023-03-27T04:08:34.523Z,0.20
2023-03-27T04:11:02.552Z,0.20
2023-03-27T04:13:30.780Z,0.10
2023-03-27T04:16:01.623Z,0.10
2023-03-27T04:18:33.082Z,0.10
2023-03-27T04:21:01.533Z,0.10
2023-03-27T04:23:31.254Z,0.10
2023-03-27T04:26:00.942Z,0.10
2023-03-27T04:28:30.379Z,0.10
2023-03-27T04:30:58.860Z,0.10
2023-03-27T04:33:30.741Z,0.10
2023-03-27T04:36:05.967Z,0.10
2023-03-27T04:38:36.920Z,0.10
2023-03-27T04:41:05.464Z,0.10
2023-03-27T04:43:36.626Z,0.10
2023-03-27T04:46:05.945Z,0.20
2023-03-27T04:48:34.230Z,0.20
2023-03-27T04:51:03.623Z,0.20
2023-03-27T04:53:32.369Z,0.40
2023-03-27T04:56:01.269Z,0.30
2023-03-27T04:58:29.422Z,0.40
2023-03-27T05:00:57.903Z,0.40
2023-03-27T05:03:28.328Z,0.40
2023-03-27T05:05:56.603Z,0.40
2023-03-27T05:08:26.331Z,0.50
2023-03-27T05:10:54.597Z,0.40
2023-03-27T05:13:22.847Z,0.60
2023-03-27T05:15:50.935Z,0.40
2023-03-27T05:18:19.064Z,0.50
2023-03-27T05:20:49.613Z,0.50
2023-03-27T05:23:17.770Z,0.50
2023-03-27T05:26:00.195Z,0.50
2023-03-27T05:28:29.345Z,0.50
2023-03-27T05:30:58.431Z,0.40
2023-03-27T05:33:27.104Z,0.60
2023-03-27T05:35:55.257Z,0.40
2023-03-27T05:38:24.618Z,0.40
2023-03-27T05:40:54.354Z,0.40
2023-03-27T05:43:22.711Z,0.40
2023-03-27T05:45:50.840Z,0.50
2023-03-27T05:48:18.900Z,0.50
2023-03-27T05:50:47.449Z,0.70
2023-03-27T05:53:15.838Z,0.60
2023-03-27T05:55:43.954Z,0.60
2023-03-27T05:58:13.688Z,0.60
2023-03-27T06:00:43.174Z,0.60
2023-03-27T06:03:13.153Z,0.60
2023-03-27T06:05:41.897Z,0.60
2023-03-27T06:08:11.685Z,0.70
2023-03-27T06:10:43.305Z,0.80
2023-03-27T06:13:14.742Z,0.90
2023-03-27T06:15:44.097Z,1.00
2023-03-27T06:18:12.724Z,1.10
2023-03-27T06:20:42.414Z,1.20
2023-03-27T06:23:10.460Z,1.30
2023-03-27T06:25:40.067Z,1.40
2023-03-27T06:28:09.714Z,1.40
2023-03-27T06:30:39.459Z,1.50
2023-03-27T06:33:08.822Z,1.50
2023-03-27T06:35:37.539Z,1.90
2023-03-27T06:38:06.541Z,1.60
2023-03-27T06:40:36.520Z,1.70
2023-03-27T06:43:06.951Z,1.80
2023-03-27T06:45:38.106Z,1.90
2023-03-27T06:48:15.308Z,2.00
2023-03-27T06:50:46.648Z,2.10
2023-03-27T06:53:26.618Z,2.10
2023-03-27T06:55:57.139Z,2.00
2023-03-27T06:58:25.640Z,2.10
2023-03-27T07:00:53.698Z,2.10
2023-03-27T07:03:24.046Z,2.20
2023-03-27T07:05:52.307Z,2.20
2023-03-27T07:08:24.997Z,2.20
2023-03-27T07:11:09.843Z,2.20
2023-03-27T07:13:38.869Z,2.60
2023-03-27T07:16:08.049Z,2.50
2023-03-27T07:18:37.800Z,2.60
2023-03-27T07:21:08.330Z,2.70
2023-03-27T07:23:36.752Z,2.80
2023-03-27T07:26:05.125Z,3.00
2023-03-27T07:28:33.270Z,3.00
2023-03-27T07:31:01.423Z,3.20
2023-03-27T07:33:29.595Z,3.40
2023-03-27T07:35:59.297Z,3.40
2023-03-27T07:38:27.758Z,3.60
2023-03-27T07:40:57.644Z,3.80
2023-03-27T07:43:25.757Z,3.90
2023-03-27T07:45:53.923Z,3.90
2023-03-27T07:48:22.249Z,4.00
2023-03-27T07:50:51.856Z,4.20
2023-03-27T07:53:33.788Z,4.40
2023-03-27T07:56:03.816Z,4.60
2023-03-27T07:58:32.135Z,4.60
2023-03-27T08:01:02.277Z,4.60
2023-03-27T08:03:31.475Z,4.70
2023-03-27T08:06:01.116Z,4.70
2023-03-27T08:08:30.815Z,4.80
2023-03-27T08:11:01.860Z,5.10
2023-03-27T08:13:30.383Z,5.20
2023-03-27T08:16:07.009Z,5.10
2023-03-27T08:18:36.490Z,5.30
2023-03-27T08:21:05.837Z,5.40
2023-03-27T08:23:36.220Z,5.50
2023-03-27T08:26:05.606Z,5.70
2023-03-27T08:28:34.804Z,6.20
2023-03-27T08:31:09.188Z,7.60
2023-03-27T08:33:37.273Z,8.80
2023-03-27T08:36:06.778Z,9.50
2023-03-27T08:38:39.336Z,10.00
2023-03-27T08:41:09.333Z,9.80
2023-03-27T08:43:41.156Z,9.90
2023-03-27T08:46:17.690Z,9.50
2023-03-27T08:48:49.839Z,9.40
2023-03-27T08:51:21.106Z,9.00
2023-03-27T08:53:57.455Z,8.60
2023-03-27T08:56:27.041Z,8.60
2023-03-27T08:58:55.760Z,9.00
2023-03-27T09:01:29.494Z,9.30
2023-03-27T09:04:05.390Z,9.30
2023-03-27T09:06:40.294Z,9.10
2023-03-27T09:09:19.925Z,9.00
2023-03-27T09:11:58.293Z,9.70
2023-03-27T09:14:32.346Z,10.40
2023-03-27T09:17:07.072Z,10.40
2023-03-27T09:19:44.010Z,9.90
2023-03-27T09:22:18.731Z,10.70
2023-03-27T09:24:51.805Z,11.10
2023-03-27T09:27:24.950Z,11.00
2023-03-27T09:30:05.850Z,11.00
2023-03-27T09:32:35.129Z,11.00
2023-03-27T09:35:04.601Z,11.20
2023-03-27T09:37:34.549Z,10.70
2023-03-27T09:40:12.919Z,10.20
2023-03-27T09:42:43.422Z,9.50
2023-03-27T09:45:13.875Z,9.00
2023-03-27T09:47:46.700Z,8.50
2023-03-27T09:50:27.778Z,8.40
2023-03-27T09:53:09.382Z,8.20
2023-03-27T09:55:52.943Z,9.10
2023-03-27T09:58:31.344Z,11.60
2023-03-27T10:01:13.390Z,12.50
2023-03-27T10:03:44.347Z,12.70
2023-03-27T10:06:16.547Z,11.80
2023-03-27T10:08:50.367Z,11.60
2023-03-27T10:11:24.146Z,12.00
2023-03-27T10:13:53.166Z,13.80
2023-03-27T10:16:23.399Z,14.10
2023-03-27T10:18:55.701Z,13.50
2023-03-27T10:21:29.924Z,13.70
2023-03-27T10:24:04.181Z,13.90
2023-03-27T10:26:37.938Z,13.90
2023-03-27T10:29:23.181Z,14.00
2023-03-27T10:31:55.250Z,14.90
2023-03-27T10:34:33.501Z,16.20
2023-03-27T10:37:03.322Z,16.10
2023-03-27T10:39:35.900Z,15.20
2023-03-27T10:42:09.001Z,13.90
2023-03-27T10:44:38.740Z,13.30
2023-03-27T10:47:16.127Z,12.40
2023-03-27T10:49:48.225Z,12.20
2023-03-27T10:52:22.950Z,11.80
2023-03-27T10:55:03.008Z,11.80
2023-03-27T10:57:34.595Z,12.70
2023-03-27T11:00:11.896Z,14.50
2023-03-27T11:02:45.856Z,15.30
2023-03-27T11:05:18.830Z,15.60
2023-03-27T11:07:51.395Z,15.60
2023-03-27T11:10:23.496Z,14.10
2023-03-27T11:12:57.085Z,13.10
2023-03-27T11:15:30.045Z,11.70
2023-03-27T11:18:01.933Z,11.20
2023-03-27T11:20:34.700Z,11.00
2023-03-27T11:23:10.126Z,11.50
2023-03-27T11:25:43.305Z,11.50
2023-03-27T11:28:20.884Z,11.40
2023-03-27T11:30:53.298Z,11.30
2023-03-27T11:33:36.287Z,11.50
2023-03-27T11:36:17.660Z,11.70
2023-03-27T11:38:51.340Z,11.80
2023-03-27T11:41:19.538Z,11.60
2023-03-27T11:43:48.996Z,11.90
2023-03-27T11:46:34.123Z,11.50
2023-03-27T11:49:23.669Z,11.20
2023-03-27T11:52:05.241Z,10.90
2023-03-27T11:54:54.206Z,10.70
2023-03-27T11:57:24.351Z,10.60
2023-03-27T12:00:05.976Z,10.80
2023-03-27T12:02:55.179Z,11.00
2023-03-27T12:05:31.927Z,10.70
2023-03-27T12:08:07.991Z,10.10
2023-03-27T12:10:38.959Z,9.60
2023-03-27T12:13:41.855Z,8.60
2023-03-27T12:16:25.340Z,8.20
2023-03-27T12:19:08.063Z,7.70
2023-03-27T12:21:54.128Z,7.50
2023-03-27T12:24:34.138Z,7.30
2023-03-27T12:27:28.937Z,7.40
2023-03-27T12:30:17.948Z,7.80
2023-03-27T12:33:01.223Z,8.50
2023-03-27T12:35:32.943Z,9.50
2023-03-27T12:38:03.560Z,10.10
2023-03-27T12:40:33.761Z,10.40
2023-03-27T12:43:23.701Z,10.60
2023-03-27T12:46:15.168Z,10.60
2023-03-27T12:48:57.850Z,10.70
2023-03-27T12:51:44.627Z,10.90
2023-03-27T12:54:25.671Z,11.00
2023-03-27T12:57:05.098Z,10.90
2023-03-27T12:59:36.938Z,11.00
2023-03-27T13:02:41.636Z,10.90
2023-03-27T13:05:39.682Z,11.00
2023-03-27T13:08:38.692Z,11.10
2023-03-27T13:11:20.265Z,11.10
2023-03-27T13:14:22.333Z,11.10
2023-03-27T13:17:12.154Z,10.90
2023-03-27T13:19:51.686Z,11.10
2023-03-27T13:22:37.073Z,11.20
2023-03-27T13:25:22.131Z,11.20
2023-03-27T13:28:09.566Z,11.30
2023-03-27T13:30:44.064Z,11.70
2023-03-27T13:33:17.295Z,12.20
2023-03-27T13:36:02.718Z,11.90
2023-03-27T13:39:13.730Z,11.50
2023-03-27T13:42:05.979Z,11.20
2023-03-27T13:44:43.701Z,11.20
2023-03-27T13:47:48.150Z,11.60
2023-03-27T13:50:41.218Z,12.00
2023-03-27T13:53:25.248Z,12.30
2023-03-27T13:56:10.989Z,12.50
2023-03-27T13:58:56.916Z,12.30
2023-03-27T14:01:38.082Z,11.60
2023-03-27T14:04:27.561Z,10.70
2023-03-27T14:07:32.475Z,9.50
2023-03-27T14:10:24.051Z,7.90
2023-03-27T14:13:01.397Z,6.60
2023-03-27T14:15:52.111Z,5.70
2023-03-27T14:18:46.495Z,5.10
2023-03-27T14:21:31.452Z,4.80
2023-03-27T14:24:18.232Z,4.50
2023-03-27T14:26:46.540Z,4.40
2023-03-27T14:29:15.461Z,4.30
2023-03-27T14:31:45.251Z,4.30
2023-03-27T14:34:18.323Z,4.40
2023-03-27T14:36:48.552Z,4.40
2023-03-27T14:39:18.621Z,4.40
2023-03-27T14:41:47.971Z,4.50
2023-03-27T14:44:18.261Z,4.40
2023-03-27T14:46:48.919Z,4.90
2023-03-27T14:49:20.778Z,5.50
2023-03-27T14:51:54.076Z,5.90
2023-03-27T14:54:28.862Z,6.60
2023-03-27T14:57:00.575Z,7.10
2023-03-27T14:59:35.027Z,7.70
2023-03-27T15:02:07.902Z,8.20
2023-03-27T15:04:40.075Z,8.70
2023-03-27T15:07:18.480Z,9.20
2023-03-27T15:09:47.029Z,9.40
2023-03-27T15:12:15.099Z,9.10
2023-03-27T15:14:43.144Z,9.00
2023-03-27T15:17:17.714Z,8.80
2023-03-27T15:19:49.151Z,8.50
2023-03-27T15:22:23.775Z,8.30
2023-03-27T15:24:56.338Z,7.80
2023-03-27T15:27:27.806Z,7.40
2023-03-27T15:29:58.568Z,7.10
2023-03-27T15:32:32.750Z,6.90
2023-03-27T15:35:05.313Z,6.80
2023-03-27T15:37:35.059Z,6.70
2023-03-27T15:40:28.531Z,6.50
2023-03-27T15:43:04.814Z,6.40
2023-03-27T15:45:40.002Z,6.30
2023-03-27T15:48:24.685Z,6.30
2023-03-27T15:50:56.885Z,6.30
2023-03-27T15:53:32.646Z,6.50
2023-03-27T15:56:03.208Z,6.80
2023-03-27T15:58:41.056Z,6.70
2023-03-27T16:01:19.137Z,6.70
2023-03-27T16:03:51.595Z,6.30
2023-03-27T16:06:30.746Z,6.30
2023-03-27T16:08:59.818Z,6.20
2023-03-27T16:11:36.801Z,6.30
2023-03-27T16:14:04.978Z,6.60
2023-03-27T16:16:34.868Z,6.80
2023-03-27T16:19:12.041Z,7.10
2023-03-27T16:21:54.104Z,7.10
2023-03-27T16:24:22.366Z,7.20
2023-03-27T16:26:52.214Z,7.30
2023-03-27T16:29:21.855Z,7.30
2023-03-27T16:31:49.920Z,7.40
2023-03-27T16:34:23.295Z,7.40
2023-03-27T16:36:52.387Z,7.40
2023-03-27T16:39:20.611Z,7.40
2023-03-27T16:41:48.746Z,7.40
2023-03-27T16:44:17.203Z,7.00
2023-03-27T16:46:46.502Z,6.90
2023-03-27T16:49:14.620Z,6.50
2023-03-27T16:51:44.057Z,6.30
2023-03-27T16:54:12.251Z,6.10
2023-03-27T16:56:40.425Z,5.90
2023-03-27T16:59:08.508Z,5.70
2023-03-27T17:01:36.636Z,5.60
2023-03-27T17:04:04.816Z,5.50
2023-03-27T17:06:33.351Z,5.60
2023-03-27T17:09:02.812Z,5.50
2023-03-27T17:11:30.957Z,5.50
2023-03-27T17:13:59.055Z,5.50
2023-03-27T17:16:27.126Z,5.50
2023-03-27T17:18:55.798Z,5.50
2023-03-27T17:21:24.250Z,5.50
2023-03-27T17:23:54.340Z,5.50
2023-03-27T17:26:25.651Z,5.40
2023-03-27T17:28:53.874Z,5.40
2023-03-27T17:31:22.118Z,5.30
2023-03-27T17:33:50.693Z,5.30
2023-03-27T17:36:29.810Z,5.40
2023-03-27T17:39:07.358Z,5.30
2023-03-27T17:41:36.833Z,5.20
2023-03-27T17:44:06.984Z,5.20
2023-03-27T17:46:36.330Z,5.10
2023-03-27T17:49:04.523Z,5.00
2023-03-27T17:51:34.254Z,4.90
2023-03-27T17:54:02.592Z,4.90
2023-03-27T17:56:30.710Z,4.70
2023-03-27T17:59:00.211Z,4.60
2023-03-27T18:01:28.358Z,4.50
2023-03-27T18:03:57.928Z,4.40
2023-03-27T18:06:26.364Z,4.40
2023-03-27T18:08:54.435Z,4.30
2023-03-27T18:11:22.804Z,4.20
2023-03-27T18:13:53.682Z,4.10
2023-03-27T18:16:23.441Z,4.10
2023-03-27T18:18:55.508Z,4.00
2023-03-27T18:21:23.652Z,3.90
2023-03-27T18:23:53.895Z,4.00
2023-03-27T18:26:22.129Z,4.00
2023-03-27T18:28:50.220Z,3.90
2023-03-27T18:31:18.863Z,3.80
2023-03-27T18:33:48.311Z,3.90
2023-03-27T18:36:16.969Z,3.90
2023-03-27T18:38:46.300Z,3.80
2023-03-27T18:41:15.582Z,3.80
2023-03-27T18:43:44.430Z,3.90
2023-03-27T18:46:16.936Z,3.80
2023-03-27T18:48:46.143Z,3.80
2023-03-27T18:51:17.585Z,3.80
2023-03-27T18:53:45.834Z,3.90
2023-03-27T18:56:13.987Z,3.90
2023-03-27T18:58:49.126Z,3.80
2023-03-27T19:01:17.655Z,3.70
2023-03-27T19:03:45.830Z,3.60
2023-03-27T19:06:15.319Z,3.80
2023-03-27T19:08:45.864Z,3.50
2023-03-27T19:11:14.069Z,3.40
2023-03-27T19:13:42.183Z,3.40
2023-03-27T19:16:14.611Z,3.30
2023-03-27T19:18:43.731Z,3.30
2023-03-27T19:21:11.871Z,3.20
2023-03-27T19:23:41.356Z,3.20
2023-03-27T19:26:11.078Z,3.10
2023-03-27T19:28:39.930Z,3.00
2023-03-27T19:31:08.330Z,2.90
2023-03-27T19:33:36.572Z,2.80
2023-03-27T19:36:04.929Z,2.70
2023-03-27T19:38:33.861Z,2.70
2023-03-27T19:41:04.434Z,2.70
2023-03-27T19:43:32.562Z,2.70
2023-03-27T19:46:14.974Z,2.70
2023-03-27T19:48:44.455Z,2.60
2023-03-27T19:51:12.552Z,2.60
2023-03-27T19:53:41.845Z,2.60
2023-03-27T19:56:11.255Z,2.60
2023-03-27T19:58:39.392Z,2.70
2023-03-27T20:01:07.573Z,2.50
2023-03-27T20:03:38.686Z,2.60
2023-03-27T20:06:12.961Z,2.60
2023-03-27T20:08:42.641Z,2.60
2023-03-27T20:11:12.350Z,2.70
2023-03-27T20:13:52.911Z,2.70
2023-03-27T20:16:26.421Z,2.80
2023-03-27T20:19:03.383Z,2.70
2023-03-27T20:21:33.761Z,2.60
2023-03-27T20:24:02.276Z,2.90
2023-03-27T20:26:38.968Z,2.60
2023-03-27T20:29:08.353Z,2.50
2023-03-27T20:31:36.887Z,2.50
2023-03-27T20:34:06.709Z,2.70
2023-03-27T20:36:35.853Z,2.50
2023-03-27T20:39:08.009Z,2.50
2023-03-27T20:41:39.221Z,2.50
2023-03-27T20:44:14.862Z,2.40
2023-03-27T20:46:47.521Z,2.40
2023-03-27T20:49:37.725Z,2.40
2023-03-27T20:52:09.933Z,2.40
2023-03-27T20:54:38.500Z,2.30
2023-03-27T20:57:08.113Z,2.30
2023-03-27T20:59:36.622Z,2.30
2023-03-27T21:02:06.692Z,2.20
2023-03-27T21:04:34.866Z,2.20
2023-03-27T21:07:02.969Z,2.20
2023-03-27T21:09:31.002Z,2.50
2023-03-27T21:12:01.119Z,2.30
2023-03-27T21:14:30.722Z,2.40
2023-03-27T21:16:58.836Z,2.40
2023-03-27T21:19:27.032Z,2.40
2023-03-27T21:21:55.340Z,2.40
2023-03-27T21:24:23.436Z,2.40
2023-03-27T21:26:51.468Z,2.40
2023-03-27T21:29:20.952Z,2.40
2023-03-27T21:31:50.521Z,2.30
2023-03-27T21:34:18.658Z,2.30
2023-03-27T21:36:46.795Z,2.30
2023-03-27T21:39:14.836Z,2.30
2023-03-27T21:41:43.132Z,2.30
2023-03-27T21:44:11.161Z,2.30
2023-03-27T21:46:39.375Z,2.40
2023-03-27T21:49:08.919Z,2.30
2023-03-27T21:51:37.119Z,2.40
2023-03-27T21:54:05.544Z,2.40
2023-03-27T21:56:33.971Z,2.50
2023-03-27T21:59:01.997Z,2.40
2023-03-27T22:01:30.055Z,2.30
2023-03-27T22:04:02.005Z,2.30
2023-03-27T22:06:31.714Z,2.30
2023-03-27T22:08:59.736Z,2.20
2023-03-27T22:11:28.814Z,2.20
2023-03-27T22:13:56.880Z,2.10
2023-03-27T22:16:25.079Z,2.10
2023-03-27T22:18:53.115Z,2.10
2023-03-27T22:21:23.916Z,2.20
2023-03-27T22:23:55.471Z,2.10
2023-03-27T22:26:25.599Z,2.10
2023-03-27T22:28:53.703Z,2.20
2023-03-27T22:31:22.544Z,2.10
2023-03-27T22:33:51.382Z,2.20
2023-03-27T22:36:20.146Z,2.20
2023-03-27T22:38:48.457Z,2.30
2023-03-27T22:41:18.280Z,2.30
2023-03-27T22:43:49.300Z,2.40
2023-03-27T22:46:20.245Z,2.50
2023-03-27T22:48:48.748Z,2.60
2023-03-27T22:51:16.772Z,2.60
2023-03-27T22:53:44.742Z,2.60
2023-03-27T22:56:12.807Z,2.60
2023-03-27T22:58:42.302Z,2.60
2023-03-27T23:01:10.636Z,2.60
2023-03-27T23:03:39.210Z,2.60
2023-03-27T23:06:07.967Z,2.70
2023-03-27T23:08:36.012Z,2.80
2023-03-27T23:11:06.721Z,2.80
2023-03-27T23:13:36.440Z,2.90
2023-03-27T23:16:06.582Z,2.90
2023-03-27T23:18:34.565Z,2.90
2023-03-27T23:21:04.320Z,2.90
2023-03-27T23:23:33.642Z,3.00
2023-03-27T23:26:02.971Z,2.90
2023-03-27T23:28:33.109Z,2.90
2023-03-27T23:31:03.049Z,2.90
2023-03-27T23:33:35.882Z,2.70
2023-03-27T23:36:07.342Z,2.80
2023-03-27T23:38:35.890Z,2.80
2023-03-27T23:41:04.691Z,2.80
2023-03-27T23:43:33.416Z,2.80
2023-03-27T23:46:01.698Z,2.70
2023-03-27T23:48:32.475Z,2.70
2023-03-27T23:51:00.508Z,2.60
2023-03-27T23:53:29.450Z,2.60
2023-03-27T23:55:59.530Z,2.50
2023-03-27T23:58:32.144Z,2.60
